CYQF

Red Deer Regional Airport

Red Deer, Alberta, Canada
METAR CYQF 201500Z 29011KT 15SM BKN060 BKN090 OVC200 M15/M21 A2999 RMK SC5AC2CI1 SLP239
Observed Flight Rules
Feb-20 @ 15:00 UTC (2 hours ago) Visual Flight Rules
Wind Visibility Clouds
290° at 11 knots 15 miles
  • Broken at 6,000' AGL
  • Broken at 9,000' AGL
  • Overcast at 20,000' AGL
Temperatures Readings
Current -15°C / 5°F
Dewpoint -21°C / -6°F
Humidity 60%
Altimeter 29.99" Hg
Pressure 1023.9 hPa
Elevation 905
METAR CYQF 201500Z 29011KT 15SM BKN060 BKN090 OVC200 M15/M21 A2999 RMK SC5AC2CI1 SLP239
Observed Flight Rules
Feb-20 @ 15:00 UTC
(2 hours ago)
VFR
Wind Visibility
290° at 11 knots 15 miles
Clouds
  • Broken at 6,000' AGL
  • Broken at 9,000' AGL
  • Overcast at 20,000' AGL
Temperature Dewpoint
-15°C / 5°F -21°C / -6°F
Humidity Altimeter Pressure
60% 29.99" Hg 1023.9 hPa